createdAt,value
2018-02-18T00:00:10.621Z,27.33
2018-02-18T00:02:38.918Z,22.23
2018-02-18T00:05:06.449Z,33.53
2018-02-18T00:07:34.748Z,26.48
2018-02-18T00:10:02.293Z,29.35
2018-02-18T00:12:29.815Z,26.87
2018-02-18T00:14:57.328Z,27.62
2018-02-18T00:17:24.841Z,26.45
2018-02-18T00:19:52.372Z,33.00
2018-02-18T00:22:19.887Z,29.67
2018-02-18T00:24:48.194Z,24.17
2018-02-18T00:27:15.725Z,22.80
2018-02-18T00:29:43.998Z,23.35
2018-02-18T00:32:12.302Z,27.27
2018-02-18T00:34:39.860Z,26.45
2018-02-18T00:37:07.390Z,27.95
2018-02-18T00:39:35.653Z,27.35
2018-02-18T00:42:03.948Z,23.12
2018-02-18T00:44:31.453Z,28.80
2018-02-18T00:46:58.973Z,28.33
2018-02-18T00:49:27.249Z,25.62
2018-02-18T00:51:55.543Z,24.63
2018-02-18T00:54:23.054Z,26.48
2018-02-18T00:56:50.587Z,26.00
2018-02-18T00:59:18.109Z,25.27
2018-02-18T01:01:46.398Z,23.83
2018-02-18T01:04:13.936Z,24.10
2018-02-18T01:06:42.226Z,25.42
2018-02-18T01:09:09.737Z,25.30
2018-02-18T01:11:37.249Z,22.73
2018-02-18T01:14:04.777Z,29.55
2018-02-18T01:16:33.062Z,24.65
2018-02-18T01:19:01.367Z,23.48
2018-02-18T01:21:28.885Z,25.65
2018-02-18T01:23:57.925Z,22.58
2018-02-18T01:26:25.444Z,24.60
2018-02-18T01:28:54.475Z,23.23
2018-02-18T01:31:22.045Z,20.60
2018-02-18T01:33:49.554Z,27.23
2018-02-18T01:36:17.063Z,22.17
2018-02-18T01:38:44.588Z,23.60
2018-02-18T01:41:12.881Z,23.70
2018-02-18T01:43:40.402Z,22.40
2018-02-18T01:46:07.913Z,32.45
2018-02-18T01:48:35.432Z,19.98
2018-02-18T01:51:02.993Z,23.42
2018-02-18T01:53:31.366Z,23.62
2018-02-18T01:55:59.678Z,19.48
2018-02-18T01:58:27.925Z,20.85
2018-02-18T02:00:55.417Z,23.85
2018-02-18T02:03:22.909Z,22.15
2018-02-18T02:05:50.417Z,22.92
2018-02-18T02:08:17.888Z,22.70
2018-02-18T02:10:46.138Z,25.77
2018-02-18T02:13:13.622Z,23.25
2018-02-18T02:15:41.881Z,25.98
2018-02-18T02:18:10.132Z,24.80
2018-02-18T02:20:37.613Z,28.30
2018-02-18T02:23:05.097Z,22.30
2018-02-18T02:25:33.337Z,21.17
2018-02-18T02:28:00.822Z,20.02
2018-02-18T02:30:29.061Z,22.35
2018-02-18T02:32:56.553Z,23.23
2018-02-18T02:35:24.793Z,21.25
2018-02-18T02:37:52.277Z,27.30
2018-02-18T02:40:21.266Z,25.23
2018-02-18T02:42:48.757Z,24.08
2018-02-18T02:45:16.997Z,23.73
2018-02-18T02:47:44.565Z,23.35
2018-02-18T02:50:12.050Z,25.77
2018-02-18T02:52:39.535Z,34.80
2018-02-18T02:55:07.026Z,31.50
2018-02-18T02:57:34.503Z,25.52
2018-02-18T03:00:01.985Z,31.23
2018-02-18T03:02:29.460Z,25.37
2018-02-18T03:04:56.947Z,31.70
2018-02-18T03:07:24.420Z,24.87
2018-02-18T03:09:51.905Z,26.85
2018-02-18T03:12:20.145Z,28.15
2018-02-18T03:14:47.637Z,30.92
2018-02-18T03:17:15.889Z,27.05
2018-02-18T03:19:43.363Z,23.42
2018-02-18T03:22:11.621Z,23.95
2018-02-18T03:24:39.103Z,31.27
2018-02-18T03:27:07.369Z,26.45
2018-02-18T03:29:34.850Z,28.70
2018-02-18T03:32:03.097Z,22.35
2018-02-18T03:34:30.574Z,27.40
2018-02-18T03:36:58.826Z,20.58
2018-02-18T03:39:26.313Z,29.08
2018-02-18T03:41:54.565Z,31.65
2018-02-18T03:44:22.147Z,29.20
2018-02-18T03:46:50.397Z,27.55
2018-02-18T03:49:17.872Z,32.38
2018-02-18T03:51:46.128Z,35.40
2018-02-18T03:54:13.611Z,39.55
2018-02-18T03:56:41.109Z,30.08
2018-02-18T03:59:08.585Z,31.92
2018-02-18T04:01:36.080Z,25.62
2018-02-18T04:04:05.065Z,34.00
2018-02-18T04:06:32.543Z,25.00
2018-02-18T04:09:00.026Z,27.80
2018-02-18T04:11:27.502Z,34.83
2018-02-18T04:13:54.985Z,27.60
2018-02-18T04:16:22.457Z,30.55
2018-02-18T04:18:49.942Z,38.70
2018-02-18T04:21:18.181Z,33.42
2018-02-18T04:23:45.666Z,33.00
2018-02-18T04:26:13.144Z,44.38
2018-02-18T04:28:41.397Z,36.58
2018-02-18T04:31:08.882Z,35.67
2018-02-18T04:33:36.372Z,34.83
2018-02-18T04:36:03.851Z,35.30
2018-02-18T04:38:31.353Z,32.88
2018-02-18T04:40:59.597Z,31.27
2018-02-18T04:43:27.093Z,34.45
2018-02-18T04:45:55.337Z,35.78
2018-02-18T04:48:22.813Z,29.95
2018-02-18T04:50:51.077Z,38.55
2018-02-18T04:53:18.561Z,39.03
2018-02-18T04:55:46.812Z,37.55
2018-02-18T04:58:14.288Z,44.85
2018-02-18T05:00:42.540Z,26.45
2018-02-18T05:03:10.021Z,33.83
2018-02-18T05:05:38.272Z,38.08
2018-02-18T05:08:05.764Z,37.95
2018-02-18T05:10:34.013Z,39.50
2018-02-18T05:13:01.493Z,37.38
2018-02-18T05:15:29.745Z,36.00
2018-02-18T05:17:57.220Z,37.92
2018-02-18T05:20:24.708Z,31.25
2018-02-18T05:22:52.190Z,34.85
2018-02-18T05:25:19.664Z,33.45
2018-02-18T05:27:47.149Z,35.88
2018-02-18T05:30:14.630Z,35.50
2018-02-18T05:32:42.878Z,39.58
2018-02-18T05:35:11.123Z,38.92
2018-02-18T05:37:38.605Z,35.28
2018-02-18T05:40:07.595Z,31.48
2018-02-18T05:42:35.085Z,30.60
2018-02-18T05:45:03.325Z,38.50
2018-02-18T05:47:30.811Z,39.00
2018-02-18T05:49:58.284Z,40.12
2018-02-18T05:52:26.537Z,35.83
2018-02-18T05:54:55.517Z,30.52
2018-02-18T05:57:23.012Z,33.63
2018-02-18T05:59:51.248Z,32.95
2018-02-18T06:02:18.732Z,40.75
2018-02-18T06:04:46.980Z,29.50
2018-02-18T06:07:14.457Z,32.95
2018-02-18T06:09:41.949Z,50.47
2018-02-18T06:12:09.442Z,40.75
2018-02-18T06:14:37.352Z,36.83
2018-02-18T06:17:04.824Z,33.78
2018-02-18T06:19:33.077Z,32.40
2018-02-18T06:22:00.553Z,42.13
2018-02-18T06:24:28.814Z,35.30
2018-02-18T06:26:56.284Z,36.58
2018-02-18T06:29:24.533Z,38.67
2018-02-18T06:31:52.013Z,42.55
2018-02-18T06:34:19.501Z,34.22
2018-02-18T06:36:46.977Z,40.47
2018-02-18T06:39:14.450Z,37.92
2018-02-18T06:41:41.929Z,35.42
2018-02-18T06:44:09.401Z,35.80
2018-02-18T06:46:36.889Z,36.92
2018-02-18T06:49:05.126Z,36.60
2018-02-18T06:51:32.605Z,39.80
2018-02-18T06:54:00.845Z,37.63
2018-02-18T06:56:28.328Z,38.13
2018-02-18T06:58:55.816Z,42.03
2018-02-18T07:01:24.060Z,38.78
2018-02-18T07:03:51.794Z,38.95
2018-02-18T07:06:19.293Z,39.13
2018-02-18T07:08:47.538Z,43.40
2018-02-18T07:11:15.013Z,34.72
2018-02-18T07:13:42.497Z,37.45
2018-02-18T07:16:10.741Z,44.88
2018-02-18T07:18:38.225Z,38.80
2018-02-18T07:21:06.481Z,48.87
2018-02-18T07:23:33.965Z,37.47
2018-02-18T07:26:02.205Z,37.75
2018-02-18T07:28:29.689Z,40.42
2018-02-18T07:30:57.163Z,33.13
2018-02-18T07:33:25.412Z,40.83
2018-02-18T07:35:52.901Z,38.28
2018-02-18T07:38:21.156Z,34.88
2018-02-18T07:40:48.633Z,36.40
2018-02-18T07:43:16.877Z,38.08
2018-02-18T07:45:44.361Z,29.17
2018-02-18T07:48:11.824Z,38.00
2018-02-18T07:50:40.065Z,32.23
2018-02-18T07:53:07.541Z,36.00
2018-02-18T07:55:35.021Z,30.67
2018-02-18T07:58:03.256Z,35.90
2018-02-18T08:00:30.738Z,36.53
2018-02-18T08:02:58.211Z,31.43
2018-02-18T08:05:26.472Z,34.83
2018-02-18T08:07:53.945Z,35.40
2018-02-18T08:10:22.185Z,35.87
2018-02-18T08:12:49.658Z,33.40
2018-02-18T08:15:17.149Z,32.80
2018-02-18T08:17:44.619Z,31.03
2018-02-18T08:20:12.089Z,35.47
2018-02-18T08:22:39.573Z,30.30
2018-02-18T08:25:07.043Z,33.10
2018-02-18T08:27:36.025Z,31.47
2018-02-18T08:30:03.510Z,32.40
2018-02-18T08:32:30.979Z,29.97
2018-02-18T08:34:59.215Z,31.00
2018-02-18T08:37:26.696Z,32.43
2018-02-18T08:39:54.170Z,28.13
2018-02-18T08:42:22.409Z,34.30
2018-02-18T08:44:49.885Z,27.43
2018-02-18T08:47:18.133Z,40.40
2018-02-18T08:49:45.607Z,31.20
2018-02-18T08:52:13.101Z,25.93
2018-02-18T08:54:41.340Z,31.73
2018-02-18T08:57:08.814Z,35.00
2018-02-18T08:59:36.297Z,27.57
2018-02-18T09:02:04.542Z,25.70
2018-02-18T09:04:32.025Z,26.40
2018-02-18T09:07:00.257Z,26.23
2018-02-18T09:09:27.741Z,29.93
2018-02-18T09:11:55.213Z,25.40
2018-02-18T09:14:22.691Z,32.23
2018-02-18T09:16:53.738Z,30.77
2018-02-18T09:19:21.220Z,27.87
2018-02-18T09:21:48.722Z,28.30
2018-02-18T09:24:16.213Z,28.97
2018-02-18T09:26:43.705Z,29.80
2018-02-18T09:29:11.182Z,29.53
2018-02-18T09:31:38.670Z,24.80
2018-02-18T09:34:06.930Z,28.07
2018-02-18T09:36:34.405Z,24.10
2018-02-18T09:39:02.646Z,26.87
2018-02-18T09:41:30.117Z,27.00
2018-02-18T09:43:57.848Z,28.67
2018-02-18T09:46:25.339Z,23.90
2018-02-18T09:48:52.813Z,25.13
2018-02-18T09:51:20.295Z,24.33
2018-02-18T09:53:48.529Z,26.87
2018-02-18T09:56:16.009Z,26.70
2018-02-18T09:58:44.249Z,23.63
2018-02-18T10:01:11.737Z,25.00
2018-02-18T10:03:39.210Z,26.00
2018-02-18T10:06:07.459Z,25.57
2018-02-18T10:08:35.752Z,28.33
2018-02-18T10:11:03.212Z,28.30
2018-02-18T10:13:31.465Z,24.07
2018-02-18T10:15:58.940Z,23.83
2018-02-18T10:18:26.413Z,26.83
2018-02-18T10:20:54.658Z,25.93
2018-02-18T10:23:22.141Z,34.27
2018-02-18T10:25:49.605Z,22.03
2018-02-18T10:28:17.844Z,25.00
2018-02-18T10:30:45.313Z,30.57
2018-02-18T10:33:12.796Z,24.80
2018-02-18T10:35:41.030Z,27.77
2018-02-18T10:38:08.516Z,23.17
2018-02-18T10:40:35.990Z,24.23
2018-02-18T10:43:04.226Z,21.93
2018-02-18T10:45:31.768Z,25.63
2018-02-18T10:47:59.293Z,25.43
2018-02-18T10:50:26.725Z,26.10
2018-02-18T10:52:54.192Z,28.47
2018-02-18T10:55:21.673Z,23.83
2018-02-18T10:57:49.912Z,24.23
2018-02-18T11:00:17.390Z,28.97
2018-02-18T11:02:45.639Z,24.63
2018-02-18T11:05:13.233Z,19.83
2018-02-18T11:07:41.465Z,28.53
2018-02-18T11:10:08.949Z,16.83
2018-02-18T11:12:36.416Z,24.07
2018-02-18T11:15:03.919Z,20.17
2018-02-18T11:17:31.400Z,22.93
2018-02-18T11:19:58.869Z,19.63
2018-02-18T11:22:26.349Z,20.80
2018-02-18T11:24:54.598Z,21.07
2018-02-18T11:27:22.070Z,23.67
2018-02-18T11:29:49.536Z,20.77
2018-02-18T11:32:17.786Z,22.63
2018-02-18T11:34:45.257Z,21.10
2018-02-18T11:37:12.743Z,22.43
2018-02-18T11:39:40.977Z,22.07
2018-02-18T11:42:08.508Z,22.13
2018-02-18T11:44:35.948Z,25.93
2018-02-18T11:47:04.189Z,23.77
2018-02-18T11:49:31.661Z,21.87
2018-02-18T11:51:59.137Z,19.50
2018-02-18T11:54:27.375Z,16.60
2018-02-18T11:56:54.865Z,18.30
2018-02-18T11:59:23.097Z,13.67
2018-02-18T12:01:50.574Z,14.57
2018-02-18T12:04:18.048Z,17.03
2018-02-18T12:06:45.513Z,17.20
2018-02-18T12:09:13.753Z,17.43
2018-02-18T12:11:41.226Z,21.40
2018-02-18T12:14:08.701Z,19.57
2018-02-18T12:16:36.932Z,19.83
2018-02-18T12:19:04.409Z,18.90
2018-02-18T12:21:31.892Z,18.10
2018-02-18T12:23:59.372Z,18.07
2018-02-18T12:26:27.651Z,21.13
2018-02-18T12:28:55.173Z,19.07
2018-02-18T12:31:22.645Z,20.50
2018-02-18T12:33:50.118Z,17.70
2018-02-18T12:36:18.369Z,15.97
2018-02-18T12:38:45.837Z,16.53
2018-02-18T12:41:13.321Z,14.33
2018-02-18T12:43:40.786Z,15.27
2018-02-18T12:46:08.269Z,15.67
2018-02-18T12:48:35.738Z,17.07
2018-02-18T12:51:03.213Z,17.97
2018-02-18T12:53:30.689Z,18.90
2018-02-18T12:55:58.297Z,21.97
2018-02-18T12:58:25.765Z,19.17
2018-02-18T13:00:53.253Z,16.00
2018-02-18T13:03:20.724Z,22.13
2018-02-18T13:05:49.261Z,22.20
2018-02-18T13:08:16.733Z,22.47
2018-02-18T13:10:44.205Z,20.30
2018-02-18T13:13:11.685Z,25.17
2018-02-18T13:15:39.246Z,18.77
2018-02-18T13:18:07.488Z,22.13
2018-02-18T13:20:34.956Z,18.93
2018-02-18T13:23:02.435Z,20.87
2018-02-18T13:25:29.901Z,20.50
2018-02-18T13:27:58.145Z,22.77
2018-02-18T13:30:25.609Z,18.13
2018-02-18T13:32:53.864Z,19.43
2018-02-18T13:35:21.339Z,20.53
2018-02-18T13:37:48.817Z,20.03
2018-02-18T13:40:16.286Z,20.20
2018-02-18T13:42:44.525Z,23.90
2018-02-18T13:45:11.997Z,21.47
2018-02-18T13:47:39.487Z,17.43
2018-02-18T13:50:07.749Z,19.73
2018-02-18T13:52:35.221Z,23.87
2018-02-18T13:55:03.460Z,20.23
2018-02-18T13:57:30.941Z,19.23
2018-02-18T13:59:58.417Z,24.17
2018-02-18T14:02:26.649Z,19.90
2018-02-18T14:04:54.129Z,23.70
2018-02-18T14:07:22.094Z,19.87
2018-02-18T14:09:49.627Z,24.33
2018-02-18T14:12:17.105Z,24.00
2018-02-18T14:14:44.581Z,21.90
2018-02-18T14:17:12.812Z,21.47
2018-02-18T14:19:40.302Z,23.77
2018-02-18T14:22:08.026Z,20.63
2018-02-18T14:24:36.566Z,23.07
2018-02-18T14:27:04.810Z,22.23
2018-02-18T14:29:32.286Z,20.47
2018-02-18T14:31:59.773Z,18.23
2018-02-18T14:34:28.034Z,23.50
2018-02-18T14:36:55.551Z,20.43
2018-02-18T14:39:23.018Z,18.27
2018-02-18T14:42:02.478Z,21.07
2018-02-18T14:44:41.732Z,19.70
2018-02-18T14:47:21.896Z,21.03
2018-02-18T14:50:02.122Z,20.90
2018-02-18T14:52:41.524Z,22.40
2018-02-18T14:55:20.962Z,21.87
2018-02-18T14:57:48.437Z,18.93
2018-02-18T15:00:15.905Z,21.10
2018-02-18T15:02:43.381Z,30.10
2018-02-18T15:05:10.846Z,23.60
2018-02-18T15:07:39.102Z,21.07
2018-02-18T15:10:06.573Z,18.30
2018-02-18T15:12:34.074Z,21.80
2018-02-18T15:15:01.540Z,19.73
2018-02-18T15:17:29.005Z,19.60
2018-02-18T15:19:56.486Z,19.83
2018-02-18T15:22:23.957Z,21.77
2018-02-18T15:24:51.433Z,19.70
2018-02-18T15:27:19.961Z,18.23
2018-02-18T15:29:47.437Z,19.40
2018-02-18T15:32:14.939Z,18.70
2018-02-18T15:34:43.186Z,18.47
2018-02-18T15:37:10.656Z,19.73
2018-02-18T15:39:38.905Z,18.27
2018-02-18T15:42:06.373Z,18.77
2018-02-18T15:44:33.845Z,24.53
2018-02-18T15:47:01.317Z,23.60
2018-02-18T15:49:28.814Z,22.93
2018-02-18T15:51:56.276Z,21.53
2018-02-18T15:54:23.754Z,25.97
2018-02-18T15:56:51.237Z,20.53
2018-02-18T15:59:18.710Z,20.60
2018-02-18T16:01:46.193Z,26.83
2018-02-18T16:04:13.661Z,23.07
2018-02-18T16:06:41.137Z,24.50
2018-02-18T16:09:08.609Z,26.70
2018-02-18T16:11:36.088Z,21.23
2018-02-18T16:14:03.553Z,24.57
2018-02-18T16:16:31.035Z,23.23
2018-02-18T16:18:59.270Z,23.43
2018-02-18T16:21:26.753Z,17.97
2018-02-18T16:23:54.241Z,21.60
2018-02-18T16:26:21.713Z,24.83
2018-02-18T16:28:49.198Z,21.00
2018-02-18T16:31:16.669Z,17.00
2018-02-18T16:33:44.153Z,20.00
2018-02-18T16:36:12.392Z,19.70
2018-02-18T16:38:39.878Z,17.03
2018-02-18T16:41:07.353Z,18.07
2018-02-18T16:43:35.603Z,18.37
2018-02-18T16:46:03.072Z,20.20
2018-02-18T16:48:31.354Z,21.43
2018-02-18T16:50:58.848Z,19.80
2018-02-18T16:53:26.316Z,19.43
2018-02-18T16:55:53.825Z,20.33
2018-02-18T16:58:21.293Z,25.03
2018-02-18T17:00:49.538Z,24.13
2018-02-18T17:03:17.059Z,22.97
2018-02-18T17:05:44.497Z,24.70
2018-02-18T17:08:12.736Z,23.23
2018-02-18T17:10:40.228Z,28.47
2018-02-18T17:13:08.461Z,28.93
2018-02-18T17:15:35.937Z,25.13
2018-02-18T17:18:04.189Z,32.33
2018-02-18T17:20:31.669Z,29.57
2018-02-18T17:22:59.139Z,26.83
2018-02-18T17:25:27.402Z,34.70
2018-02-18T17:27:55.636Z,33.20
2018-02-18T17:30:23.106Z,28.83
2018-02-18T17:32:50.593Z,30.50
2018-02-18T17:35:18.069Z,34.13
2018-02-18T17:37:45.549Z,29.43
2018-02-18T17:40:13.781Z,31.03
2018-02-18T17:42:41.256Z,31.70
2018-02-18T17:45:08.725Z,35.10
2018-02-18T17:47:36.972Z,30.70
2018-02-18T17:50:04.455Z,36.20
2018-02-18T17:52:31.938Z,30.17
2018-02-18T17:54:59.401Z,31.77
2018-02-18T17:57:26.945Z,27.20
2018-02-18T17:59:54.378Z,31.13
2018-02-18T18:02:21.857Z,27.50
2018-02-18T18:04:50.097Z,34.57
2018-02-18T18:07:17.590Z,28.10
2018-02-18T18:09:45.825Z,32.00
2018-02-18T18:12:13.301Z,32.23
2018-02-18T18:14:42.297Z,28.63
2018-02-18T18:17:09.773Z,26.23
2018-02-18T18:19:38.018Z,26.83
2018-02-18T18:22:05.495Z,26.10
2018-02-18T18:24:32.974Z,34.93
2018-02-18T18:27:05.074Z,37.13
2018-02-18T18:29:32.558Z,29.10
2018-02-18T18:32:00.025Z,27.43
2018-02-18T18:34:27.753Z,27.00
2018-02-18T18:36:55.232Z,28.53
2018-02-18T18:39:22.724Z,28.87
2018-02-18T18:41:50.196Z,31.97
2018-02-18T18:44:18.441Z,27.83
2018-02-18T18:46:45.917Z,27.50
2018-02-18T18:49:13.478Z,31.20
2018-02-18T18:51:40.945Z,28.33
2018-02-18T18:54:09.186Z,26.13
2018-02-18T18:56:36.669Z,29.33
2018-02-18T18:59:04.137Z,29.93
2018-02-18T19:01:32.390Z,33.43
2018-02-18T19:04:00.633Z,25.63
2018-02-18T19:06:28.118Z,31.67
2018-02-18T19:08:55.594Z,27.97
2018-02-18T19:11:23.072Z,31.60
2018-02-18T19:13:50.549Z,30.77
2018-02-18T19:16:18.029Z,31.00
2018-02-18T19:18:45.496Z,31.80
2018-02-18T19:21:12.972Z,37.22
2018-02-18T19:23:40.455Z,25.50
2018-02-18T19:26:08.709Z,32.60
2018-02-18T19:28:36.177Z,32.30
2018-02-18T19:31:03.654Z,31.70
2018-02-18T19:33:31.893Z,32.43
2018-02-18T19:35:59.368Z,28.37
2018-02-18T19:38:26.845Z,30.93
2018-02-18T19:40:55.077Z,30.23
2018-02-18T19:43:22.548Z,31.47
2018-02-18T19:45:50.782Z,26.90
2018-02-18T19:48:18.261Z,33.37
2018-02-18T19:50:45.745Z,36.10
2018-02-18T19:53:14.755Z,33.40
2018-02-18T19:55:42.225Z,37.23
2018-02-18T19:58:10.468Z,29.93
2018-02-18T20:00:37.941Z,29.27
2018-02-18T20:03:05.413Z,33.33
2018-02-18T20:05:33.668Z,37.73
2018-02-18T20:08:01.909Z,34.90
2018-02-18T20:10:29.393Z,30.60
2018-02-18T20:12:56.876Z,31.73
2018-02-18T20:15:24.358Z,33.03
2018-02-18T20:17:51.830Z,35.30
2018-02-18T20:20:19.312Z,32.47
2018-02-18T20:22:46.781Z,34.17
2018-02-18T20:25:14.267Z,32.47
2018-02-18T20:27:41.746Z,32.67
2018-02-18T20:30:10.006Z,34.17
2018-02-18T20:32:38.254Z,32.23
2018-02-18T20:35:05.747Z,31.77
2018-02-18T20:37:33.998Z,32.67
2018-02-18T20:40:01.478Z,31.17
2018-02-18T20:42:29.769Z,34.28
2018-02-18T20:44:58.008Z,38.73
2018-02-18T20:47:25.498Z,34.42
2018-02-18T20:49:53.744Z,35.33
2018-02-18T20:52:21.225Z,39.67
2018-02-18T20:54:49.468Z,36.43
2018-02-18T20:57:16.973Z,33.83
2018-02-18T20:59:44.453Z,33.00
2018-02-18T21:02:11.927Z,30.63
2018-02-18T21:04:39.412Z,33.80
2018-02-18T21:07:06.900Z,34.63
2018-02-18T21:09:35.241Z,36.20
2018-02-18T21:12:02.734Z,35.42
2018-02-18T21:14:31.001Z,36.22
2018-02-18T21:16:58.469Z,41.50
2018-02-18T21:19:26.716Z,36.73
2018-02-18T21:21:54.201Z,33.03
2018-02-18T21:24:22.453Z,33.27
2018-02-18T21:26:49.938Z,33.55
2018-02-18T21:29:18.198Z,31.43
2018-02-18T21:31:45.668Z,40.93
2018-02-18T21:34:13.918Z,33.90
2018-02-18T21:36:41.393Z,33.43
2018-02-18T21:39:08.876Z,42.50
2018-02-18T21:41:36.348Z,37.60
2018-02-18T21:44:03.849Z,34.53
2018-02-18T21:46:31.325Z,35.20
2018-02-18T21:49:00.961Z,34.50
2018-02-18T21:51:28.450Z,37.35
2018-02-18T21:53:55.929Z,35.13
2018-02-18T21:56:23.425Z,37.13
2018-02-18T21:58:51.677Z,34.75
2018-02-18T22:01:19.954Z,40.05
2018-02-18T22:03:47.426Z,32.97
2018-02-18T22:06:14.917Z,35.30
2018-02-18T22:08:42.401Z,35.10
2018-02-18T22:11:09.887Z,33.42
2018-02-18T22:13:37.356Z,39.77
2018-02-18T22:16:05.605Z,39.80
2018-02-18T22:18:33.081Z,36.73
2018-02-18T22:21:00.577Z,39.00
2018-02-18T22:23:28.058Z,37.40
2018-02-18T22:25:55.539Z,43.00
2018-02-18T22:28:23.025Z,40.47
2018-02-18T22:30:50.502Z,32.60
2018-02-18T22:33:18.752Z,40.17
2018-02-18T22:35:46.231Z,34.67
2018-02-18T22:38:14.482Z,40.67
2018-02-18T22:40:41.968Z,41.08
2018-02-18T22:43:10.218Z,39.08
2018-02-18T22:45:37.703Z,38.30
2018-02-18T22:48:05.961Z,42.55
2018-02-18T22:50:33.441Z,37.67
2018-02-18T22:53:01.706Z,43.40
2018-02-18T22:55:29.189Z,39.80
2018-02-18T22:57:56.662Z,38.25
2018-02-18T23:00:24.150Z,40.28
2018-02-18T23:02:51.637Z,42.95
2018-02-18T23:05:25.600Z,36.53
2018-02-18T23:07:53.077Z,37.70
2018-02-18T23:10:20.560Z,39.47
2018-02-18T23:12:48.037Z,41.47
2018-02-18T23:15:16.285Z,41.60
2018-02-18T23:17:43.757Z,44.40
2018-02-18T23:20:11.241Z,43.50
2018-02-18T23:22:39.477Z,45.30
2018-02-18T23:25:06.978Z,44.40
2018-02-18T23:27:34.449Z,43.35
2018-02-18T23:30:01.925Z,49.90
2018-02-18T23:32:29.414Z,40.40
2018-02-18T23:34:56.884Z,47.75
2018-02-18T23:37:24.400Z,44.10
2018-02-18T23:39:51.878Z,43.45
2018-02-18T23:42:19.365Z,36.05
2018-02-18T23:44:47.612Z,47.42
2018-02-18T23:47:15.098Z,40.67
2018-02-18T23:49:42.569Z,40.88
2018-02-18T23:52:10.850Z,43.50
2018-02-18T23:54:38.335Z,45.17
2018-02-18T23:57:05.821Z,50.00
2018-02-18T23:59:33.309Z,43.00
